Sakun'Ja, Russia
Current Conditions -  °F | °C
As of 6:30 PM on Friday 24 Oct 2014 (Local Time) from UWKS Reporting Station
Blowing Snow Blowing Snow  
Wind Chill:   Ceiling: 2600
Heat Index: 18°   Visibility: 6mi
Dew Point: 10°   Wind: 13mph
Humidity: 73%   Direction: 350°N
Pressure: 30.33"   Gusts: NA
Location:  57.67°N, 46.63°E
Report Text: UWKS 241530Z 35006MPS 9999 DRSN BKN026CB M08/M12 Q1027 TEMPO33008G13MPS RMK QFE755 06820245
Loading
Personal Weather Stations






























Interactive Weather Map
Tropical Storm Tracking
New forecast layout! Learn more

10-Day Weather Forecast

Advertisements
Track Severe Weather on mobile